createdAt,value
2019-06-15T00:03:29.432Z,7.40
2019-06-15T00:08:35.661Z,6.83
2019-06-15T00:13:41.890Z,7.10
2019-06-15T00:18:48.069Z,7.73
2019-06-15T00:23:54.302Z,7.90
2019-06-15T00:29:00.690Z,7.73
2019-06-15T00:34:07.030Z,7.40
2019-06-15T00:39:13.125Z,7.87
2019-06-15T00:44:19.415Z,7.73
2019-06-15T00:49:25.561Z,8.43
2019-06-15T00:54:31.737Z,8.10
2019-06-15T00:59:37.980Z,9.10
2019-06-15T01:04:44.235Z,8.73
2019-06-15T01:09:50.569Z,9.13
2019-06-15T01:14:56.875Z,10.03
2019-06-15T01:20:03.110Z,10.43
2019-06-15T01:25:10.426Z,10.13
2019-06-15T01:30:16.708Z,11.12
2019-06-15T01:35:23.173Z,11.30
2019-06-15T01:40:29.394Z,11.47
2019-06-15T01:45:35.720Z,11.47
2019-06-15T01:50:42.148Z,12.23
2019-06-15T01:55:48.492Z,11.50
2019-06-15T02:00:54.859Z,12.90
2019-06-15T02:06:01.184Z,13.57
2019-06-15T02:11:07.389Z,13.80
2019-06-15T02:16:13.681Z,13.90
2019-06-15T02:21:19.940Z,13.03
2019-06-15T02:26:26.077Z,11.93
2019-06-15T02:31:32.325Z,13.13
2019-06-15T02:36:38.800Z,12.67
2019-06-15T02:41:45.169Z,14.93
2019-06-15T02:46:51.424Z,13.58
2019-06-15T02:51:57.568Z,15.47
2019-06-15T02:57:03.736Z,16.03
2019-06-15T03:02:09.994Z,16.55
2019-06-15T03:07:16.238Z,18.33
2019-06-15T03:12:22.698Z,17.05
2019-06-15T03:17:28.826Z,18.07
2019-06-15T03:22:34.969Z,20.53
2019-06-15T03:27:41.592Z,21.00
2019-06-15T03:32:47.962Z,20.90
2019-06-15T03:37:54.368Z,21.73
2019-06-15T03:43:00.672Z,24.07
2019-06-15T03:48:06.887Z,25.27
2019-06-15T03:53:13.173Z,26.53
2019-06-15T03:58:19.542Z,27.07
2019-06-15T04:03:25.906Z,29.67
2019-06-15T04:08:32.215Z,29.47
2019-06-15T04:13:38.463Z,28.47
2019-06-15T04:18:44.696Z,31.33
2019-06-15T04:23:51.021Z,31.90
2019-06-15T04:28:57.252Z,37.70
2019-06-15T04:34:03.444Z,35.47
2019-06-15T04:39:09.895Z,37.97
2019-06-15T04:44:16.070Z,37.50
2019-06-15T04:49:22.233Z,40.60
2019-06-15T04:54:28.559Z,39.43
2019-06-15T04:59:34.821Z,39.07
2019-06-15T05:04:41.101Z,40.27
2019-06-15T05:09:47.327Z,39.47
2019-06-15T05:14:53.626Z,39.87
2019-06-15T05:19:59.880Z,43.40
2019-06-15T05:25:06.635Z,41.97
2019-06-15T05:30:14.138Z,39.17
2019-06-15T05:35:23.407Z,34.97
2019-06-15T05:40:28.146Z,37.50
2019-06-15T05:45:34.420Z,37.80
2019-06-15T05:50:40.724Z,36.77
2019-06-15T05:55:46.962Z,39.37
2019-06-15T06:00:54.404Z,35.90
2019-06-15T06:06:00.585Z,36.80
2019-06-15T06:11:06.748Z,36.60
2019-06-15T06:16:12.961Z,33.90
2019-06-15T06:21:19.413Z,35.60
2019-06-15T06:26:25.620Z,31.47
2019-06-15T06:31:31.833Z,30.37
2019-06-15T06:36:38.117Z,28.00
2019-06-15T06:41:44.424Z,25.23
2019-06-15T06:46:50.686Z,26.23
2019-06-15T06:51:56.989Z,25.63
2019-06-15T06:57:03.236Z,24.27
2019-06-15T07:02:09.334Z,22.53
2019-06-15T07:07:15.596Z,19.67
2019-06-15T07:12:21.763Z,15.47
2019-06-15T07:17:28.043Z,15.00
2019-06-15T07:22:34.324Z,14.03
2019-06-15T07:27:43.129Z,13.60
2019-06-15T07:32:49.322Z,10.63
2019-06-15T07:37:55.539Z,10.30
2019-06-15T07:43:01.854Z,10.80
2019-06-15T07:48:08.198Z,8.87
2019-06-15T07:53:14.555Z,9.17
2019-06-15T07:58:24.612Z,9.30
2019-06-15T08:03:29.090Z,10.60
2019-06-15T08:08:35.302Z,10.93
2019-06-15T08:13:41.680Z,31.80
2019-06-15T08:18:48.035Z,30.53
2019-06-15T08:23:54.234Z,31.87
2019-06-15T08:29:00.409Z,28.80
2019-06-15T08:34:06.606Z,25.47
2019-06-15T08:39:12.791Z,27.90
2019-06-15T08:44:19.122Z,32.50
2019-06-15T08:49:25.406Z,14.73
2019-06-15T08:54:31.610Z,13.63
2019-06-15T08:59:37.826Z,12.10
2019-06-15T09:04:44.016Z,9.27
2019-06-15T09:09:50.207Z,8.03
2019-06-15T09:14:56.377Z,5.63
2019-06-15T09:20:02.684Z,5.20
2019-06-15T09:25:09.022Z,4.43
2019-06-15T09:30:15.366Z,3.60
2019-06-15T09:35:21.628Z,3.83
2019-06-15T09:40:27.926Z,4.20
2019-06-15T09:45:34.314Z,3.10
2019-06-15T09:50:40.504Z,2.93
2019-06-15T09:55:46.673Z,2.93
2019-06-15T10:00:52.864Z,2.50
2019-06-15T10:05:59.146Z,2.27
2019-06-15T10:11:05.489Z,3.90
2019-06-15T10:16:11.741Z,4.53
2019-06-15T10:21:17.996Z,4.87
2019-06-15T10:26:25.160Z,4.80
2019-06-15T10:31:31.386Z,3.80
2019-06-15T10:36:37.559Z,3.60
2019-06-15T10:41:43.784Z,4.20
2019-06-15T10:46:50.077Z,5.10
2019-06-15T10:51:56.428Z,4.53
2019-06-15T10:57:03.109Z,3.00
2019-06-15T11:02:09.453Z,3.50
2019-06-15T11:07:15.728Z,2.57
2019-06-15T11:12:21.978Z,2.80
2019-06-15T11:17:28.551Z,2.43
2019-06-15T11:22:34.853Z,2.77
2019-06-15T11:27:41.287Z,3.33
2019-06-15T11:32:47.599Z,3.17
2019-06-15T11:37:53.917Z,3.93
2019-06-15T11:43:00.091Z,2.83
2019-06-15T11:48:06.185Z,3.13
2019-06-15T11:53:12.364Z,3.87
2019-06-15T11:58:18.597Z,4.07
2019-06-15T12:03:24.801Z,4.87
2019-06-15T12:08:31.081Z,4.80
2019-06-15T12:13:38.403Z,5.00
2019-06-15T12:18:44.602Z,5.37
2019-06-15T12:23:51.978Z,3.70
2019-06-15T12:28:58.423Z,3.43
2019-06-15T12:34:04.682Z,2.80
2019-06-15T12:39:10.933Z,3.00
2019-06-15T12:44:17.753Z,2.93
2019-06-15T12:49:24.001Z,3.13
2019-06-15T12:54:30.321Z,3.20
2019-06-15T12:59:36.679Z,2.93
2019-06-15T13:04:42.934Z,2.93
2019-06-15T13:09:49.256Z,2.90
2019-06-15T13:14:55.538Z,3.17
2019-06-15T13:20:01.983Z,3.50
2019-06-15T13:25:08.222Z,4.03
2019-06-15T13:30:19.812Z,3.70
2019-06-15T13:35:26.092Z,4.20
2019-06-15T13:40:32.274Z,5.37
2019-06-15T13:45:38.497Z,4.87
2019-06-15T13:50:44.802Z,5.77
2019-06-15T13:55:51.110Z,5.63
2019-06-15T14:01:00.575Z,6.93
2019-06-15T14:06:05.238Z,7.10
2019-06-15T14:11:11.658Z,6.60
2019-06-15T14:16:17.852Z,8.20
2019-06-15T14:21:24.056Z,7.40
2019-06-15T14:26:30.253Z,8.50
2019-06-15T14:31:49.354Z,10.13
2019-06-15T14:36:44.335Z,287.80
2019-06-15T14:41:51.194Z,129.07
2019-06-15T14:46:57.665Z,257.07
2019-06-15T14:52:04.129Z,144.83
2019-06-15T14:57:10.359Z,8.10
2019-06-15T15:02:17.655Z,7.93
2019-06-15T15:07:26.118Z,8.07
2019-06-15T15:12:31.978Z,7.63
2019-06-15T15:17:38.704Z,4.93
2019-06-15T15:22:46.551Z,2.93
2019-06-15T15:27:53.968Z,3.10
2019-06-15T15:33:00.214Z,3.80
2019-06-15T15:38:06.407Z,3.80
2019-06-15T15:43:12.604Z,3.43
2019-06-15T15:48:21.070Z,2.97
2019-06-15T15:53:26.792Z,2.93
2019-06-15T15:58:33.077Z,2.77
2019-06-15T16:03:39.433Z,3.17
2019-06-15T16:08:47.056Z,4.00
2019-06-15T16:13:53.492Z,2.90
2019-06-15T16:18:59.697Z,2.90
2019-06-15T16:24:07.416Z,3.83
2019-06-15T16:29:16.030Z,3.20
2019-06-15T16:34:21.728Z,3.57
2019-06-15T16:39:27.915Z,3.73
2019-06-15T16:44:36.422Z,3.23
2019-06-15T16:49:42.024Z,3.73
2019-06-15T16:54:48.189Z,3.40
2019-06-15T17:00:18.460Z,4.10
2019-06-15T17:05:27.361Z,3.80
2019-06-15T17:10:39.439Z,2.93
2019-06-15T17:15:47.469Z,4.30
2019-06-15T17:20:56.509Z,3.40
2019-06-15T17:26:02.671Z,6.50
2019-06-15T17:31:08.959Z,8.70
2019-06-15T17:36:15.195Z,3.83
2019-06-15T17:41:21.554Z,3.63
2019-06-15T17:46:29.935Z,4.70
2019-06-15T17:51:36.769Z,3.30
2019-06-15T17:56:46.273Z,3.17
2019-06-15T18:01:52.176Z,3.40
2019-06-15T18:07:01.647Z,4.27
2019-06-15T18:12:07.931Z,3.83
2019-06-15T18:17:17.029Z,3.53
2019-06-15T18:22:22.620Z,4.07
2019-06-15T18:27:28.939Z,3.90
2019-06-15T18:32:38.401Z,4.23
2019-06-15T18:37:46.223Z,4.63
2019-06-15T18:42:52.741Z,6.00
2019-06-15T18:47:58.929Z,5.13
2019-06-15T18:53:07.121Z,6.43
2019-06-15T18:58:16.995Z,7.70
2019-06-15T19:03:26.253Z,10.10
2019-06-15T19:08:33.368Z,10.27
2019-06-15T19:13:40.022Z,9.60
2019-06-15T19:18:46.483Z,10.93
2019-06-15T19:23:56.634Z,13.43
2019-06-15T19:29:03.001Z,12.13
2019-06-15T19:34:09.247Z,15.67
2019-06-15T19:39:16.533Z,15.07
2019-06-15T19:44:26.754Z,15.87
2019-06-15T19:49:36.337Z,15.33
2019-06-15T19:54:42.335Z,18.23
2019-06-15T19:59:48.582Z,16.80
2019-06-15T20:05:03.184Z,15.73
2019-06-15T20:10:02.751Z,15.80
2019-06-15T20:15:09.301Z,18.90
2019-06-15T20:20:16.719Z,14.70
2019-06-15T20:25:23.010Z,14.53
2019-06-15T20:30:29.277Z,12.47
2019-06-15T20:35:35.972Z,12.10
2019-06-15T20:40:42.426Z,11.67
2019-06-15T20:45:48.771Z,12.53
2019-06-15T20:50:56.772Z,12.07
2019-06-15T20:56:03.357Z,13.10
2019-06-15T21:01:09.525Z,13.93
2019-06-15T21:06:16.854Z,14.23
2019-06-15T21:11:23.444Z,14.30
2019-06-15T21:16:29.721Z,13.90
2019-06-15T21:21:37.424Z,13.50
2019-06-15T21:26:45.969Z,13.27
2019-06-15T21:31:52.048Z,11.43
2019-06-15T21:36:58.321Z,12.63
2019-06-15T21:42:05.663Z,12.10
2019-06-15T21:47:12.046Z,13.07
2019-06-15T21:52:18.278Z,14.13
2019-06-15T21:57:26.826Z,15.30
2019-06-15T22:02:36.345Z,14.13
2019-06-15T22:07:42.321Z,13.97
2019-06-15T22:12:58.331Z,14.17
2019-06-15T22:18:06.830Z,13.33
2019-06-15T22:23:12.764Z,14.00
2019-06-15T22:28:19.078Z,14.20
2019-06-15T22:33:26.967Z,13.73
2019-06-15T22:38:36.701Z,14.13
2019-06-15T22:43:42.396Z,13.33
2019-06-15T22:48:48.624Z,14.03
2019-06-15T22:53:56.614Z,13.97
2019-06-15T22:59:02.960Z,12.93
2019-06-15T23:04:09.192Z,13.20
2019-06-15T23:09:17.073Z,12.60
2019-06-15T23:14:26.045Z,13.23
2019-06-15T23:19:33.195Z,13.30
2019-06-15T23:24:39.501Z,12.60
2019-06-15T23:29:46.242Z,13.20
2019-06-15T23:34:52.772Z,13.83
2019-06-15T23:40:16.872Z,13.60
2019-06-15T23:45:26.589Z,11.27
2019-06-15T23:50:31.919Z,13.00
2019-06-15T23:55:38.484Z,12.93
